createdAt,value
2024-02-11T00:02:58.088Z,9.20
2024-02-11T00:06:21.307Z,9.10
2024-02-11T00:09:44.664Z,9.10
2024-02-11T00:13:06.988Z,9.10
2024-02-11T00:16:30.983Z,9.10
2024-02-11T00:19:56.648Z,9.10
2024-02-11T00:23:19.146Z,9.10
2024-02-11T00:26:43.434Z,9.10
2024-02-11T00:30:14.544Z,9.10
2024-02-11T00:33:42.223Z,9.10
2024-02-11T00:37:14.022Z,9.00
2024-02-11T00:40:39.666Z,9.00
2024-02-11T00:44:03.156Z,8.90
2024-02-11T00:47:27.276Z,8.90
2024-02-11T00:50:51.521Z,8.90
2024-02-11T00:54:14.534Z,8.80
2024-02-11T00:57:39.860Z,8.90
2024-02-11T01:01:06.571Z,8.90
2024-02-11T01:04:29.769Z,8.80
2024-02-11T01:07:54.188Z,8.90
2024-02-11T01:11:18.471Z,8.90
2024-02-11T01:14:40.817Z,8.90
2024-02-11T01:18:03.762Z,8.80
2024-02-11T01:21:28.687Z,8.80
2024-02-11T01:24:51.690Z,8.80
2024-02-11T01:28:15.420Z,8.80
2024-02-11T01:31:39.725Z,8.80
2024-02-11T01:35:03.757Z,8.80
2024-02-11T01:38:27.287Z,8.70
2024-02-11T01:41:49.790Z,8.80
2024-02-11T01:45:15.357Z,8.70
2024-02-11T01:48:38.898Z,8.70
2024-02-11T01:52:02.816Z,8.70
2024-02-11T01:55:27.509Z,8.70
2024-02-11T01:58:52.262Z,8.70
2024-02-11T02:02:18.977Z,8.70
2024-02-11T02:05:44.613Z,8.70
2024-02-11T02:09:12.582Z,8.70
2024-02-11T02:12:35.609Z,8.70
2024-02-11T02:16:00.409Z,8.70
2024-02-11T02:19:22.910Z,8.60
2024-02-11T02:22:49.462Z,8.60
2024-02-11T02:26:12.018Z,8.60
2024-02-11T02:29:35.303Z,8.60
2024-02-11T02:32:57.954Z,8.60
2024-02-11T02:36:20.288Z,8.60
2024-02-11T02:39:46.612Z,8.60
2024-02-11T02:43:13.248Z,8.60
2024-02-11T02:46:36.572Z,8.60
2024-02-11T02:49:59.392Z,8.60
2024-02-11T02:53:23.177Z,8.60
2024-02-11T02:56:45.697Z,8.50
2024-02-11T03:00:11.274Z,8.50
2024-02-11T03:03:33.764Z,8.50
2024-02-11T03:06:59.330Z,8.50
2024-02-11T03:10:22.958Z,8.40
2024-02-11T03:13:45.538Z,8.40
2024-02-11T03:17:08.773Z,8.40
2024-02-11T03:20:32.774Z,8.50
2024-02-11T03:23:55.480Z,8.40
2024-02-11T03:27:18.378Z,8.50
2024-02-11T03:30:41.241Z,8.50
2024-02-11T03:34:06.472Z,8.50
2024-02-11T03:37:33.557Z,8.50
2024-02-11T03:40:57.444Z,8.60
2024-02-11T03:44:19.786Z,8.50
2024-02-11T03:47:42.630Z,8.50
2024-02-11T03:51:08.602Z,8.40
2024-02-11T03:54:31.116Z,8.40
2024-02-11T03:57:55.065Z,8.30
2024-02-11T04:01:24.269Z,8.50
2024-02-11T04:04:47.559Z,8.50
2024-02-11T04:08:13.696Z,8.40
2024-02-11T04:11:36.303Z,8.40
2024-02-11T04:15:00.529Z,8.40
2024-02-11T04:18:24.459Z,8.40
2024-02-11T04:21:46.857Z,8.40
2024-02-11T04:25:13.337Z,8.60
2024-02-11T04:28:40.046Z,8.60
2024-02-11T04:32:05.594Z,8.50
2024-02-11T04:35:28.196Z,8.50
2024-02-11T04:38:51.691Z,8.50
2024-02-11T04:42:18.610Z,8.50
2024-02-11T04:45:44.494Z,8.50
2024-02-11T04:49:08.850Z,8.50
2024-02-11T04:52:33.924Z,8.60
2024-02-11T04:55:59.092Z,8.60
2024-02-11T04:59:22.968Z,8.60
2024-02-11T05:02:45.815Z,8.60
2024-02-11T05:06:09.690Z,8.50
2024-02-11T05:09:38.793Z,8.50
2024-02-11T05:13:05.567Z,8.40
2024-02-11T05:16:29.930Z,8.30
2024-02-11T05:19:54.846Z,8.30
2024-02-11T05:23:21.302Z,8.40
2024-02-11T05:26:43.670Z,8.50
2024-02-11T05:30:09.674Z,8.50
2024-02-11T05:33:33.073Z,8.50
2024-02-11T05:36:57.059Z,8.50
2024-02-11T05:40:20.655Z,8.40
2024-02-11T05:43:44.507Z,8.50
2024-02-11T05:47:09.054Z,8.40
2024-02-11T05:50:34.369Z,8.50
2024-02-11T05:53:57.438Z,8.40
2024-02-11T05:57:24.793Z,8.50
2024-02-11T06:00:47.286Z,8.40
2024-02-11T06:04:13.395Z,8.40
2024-02-11T06:07:38.795Z,8.40
2024-02-11T06:11:01.777Z,8.40
2024-02-11T06:14:26.122Z,8.50
2024-02-11T06:17:52.331Z,8.50
2024-02-11T06:21:22.861Z,8.40
2024-02-11T06:24:46.273Z,8.40
2024-02-11T06:29:19.139Z,8.40
2024-02-11T06:32:48.203Z,8.40
2024-02-11T06:36:14.874Z,8.50
2024-02-11T06:39:42.248Z,8.50
2024-02-11T06:43:13.456Z,8.40
2024-02-11T06:46:39.057Z,8.40
2024-02-11T06:50:03.280Z,8.50
2024-02-11T06:53:31.420Z,8.50
2024-02-11T06:56:55.704Z,8.60
2024-02-11T07:00:22.835Z,8.60
2024-02-11T07:03:48.559Z,8.60
2024-02-11T07:07:12.218Z,8.60
2024-02-11T07:10:41.822Z,8.70
2024-02-11T07:14:06.292Z,8.80
2024-02-11T07:17:32.795Z,8.90
2024-02-11T07:20:55.630Z,8.90
2024-02-11T07:24:19.738Z,9.00
2024-02-11T07:27:42.468Z,9.10
2024-02-11T07:31:10.453Z,9.10
2024-02-11T07:34:41.363Z,9.20
2024-02-11T07:38:06.832Z,9.30
2024-02-11T07:41:29.030Z,9.40
2024-02-11T07:44:51.259Z,9.40
2024-02-11T07:48:13.692Z,9.40
2024-02-11T07:51:36.271Z,9.40
2024-02-11T07:54:58.514Z,9.50
2024-02-11T07:58:20.983Z,9.50
2024-02-11T08:01:44.207Z,9.60
2024-02-11T08:05:07.354Z,9.70
2024-02-11T08:08:30.606Z,9.70
2024-02-11T08:11:53.352Z,9.80
2024-02-11T08:15:15.819Z,9.90
2024-02-11T08:18:39.574Z,10.10
2024-02-11T08:22:02.593Z,10.30
2024-02-11T08:25:24.998Z,10.50
2024-02-11T08:28:47.226Z,10.60
2024-02-11T08:32:09.524Z,10.60
2024-02-11T08:35:33.173Z,10.80
2024-02-11T08:38:56.103Z,11.00
2024-02-11T08:42:18.802Z,11.00
2024-02-11T08:45:41.564Z,10.90
2024-02-11T08:49:04.870Z,10.80
2024-02-11T08:52:27.972Z,10.70
2024-02-11T08:55:50.184Z,10.70
2024-02-11T08:59:14.824Z,10.70
2024-02-11T09:02:38.210Z,10.60
2024-02-11T09:06:02.166Z,10.70
2024-02-11T09:09:28.413Z,10.80
2024-02-11T09:12:50.681Z,10.80
2024-02-11T09:16:13.624Z,10.80
2024-02-11T09:19:35.917Z,10.80
2024-02-11T09:22:58.168Z,10.80
2024-02-11T09:26:20.563Z,10.80
2024-02-11T09:29:42.669Z,10.80
2024-02-11T09:33:04.921Z,10.90
2024-02-11T09:36:27.171Z,11.00
2024-02-11T09:39:49.439Z,10.90
2024-02-11T09:43:13.766Z,10.90
2024-02-11T09:46:37.227Z,10.90
2024-02-11T09:50:02.573Z,11.00
2024-02-11T09:53:26.663Z,11.20
2024-02-11T09:56:48.906Z,11.30
2024-02-11T10:00:11.466Z,11.60
2024-02-11T10:03:35.325Z,11.90
2024-02-11T10:07:01.226Z,12.00
2024-02-11T10:10:23.436Z,11.80
2024-02-11T10:13:45.916Z,11.60
2024-02-11T10:17:08.144Z,11.60
2024-02-11T10:20:30.444Z,11.60
2024-02-11T10:23:52.861Z,11.70
2024-02-11T10:27:16.194Z,11.90
2024-02-11T10:30:38.385Z,12.00
2024-02-11T10:34:00.871Z,12.00
2024-02-11T10:37:23.216Z,12.10
2024-02-11T10:40:47.619Z,12.10
2024-02-11T10:44:13.220Z,12.00
2024-02-11T10:47:35.820Z,12.00
2024-02-11T10:51:16.037Z,11.80
2024-02-11T10:54:43.291Z,11.80
2024-02-11T10:58:09.509Z,11.70
2024-02-11T11:01:33.669Z,11.80
2024-02-11T11:05:05.056Z,11.90
2024-02-11T11:08:28.416Z,11.90
2024-02-11T11:11:52.723Z,12.00
2024-02-11T11:15:22.094Z,11.80
2024-02-11T11:18:48.467Z,11.70
2024-02-11T11:22:10.572Z,11.60
2024-02-11T11:25:33.609Z,11.50
2024-02-11T11:29:04.231Z,11.50
2024-02-11T11:32:27.031Z,11.50
2024-02-11T11:35:57.626Z,11.40
2024-02-11T11:39:20.850Z,11.40
2024-02-11T11:42:43.153Z,11.40
2024-02-11T11:46:05.724Z,11.40
2024-02-11T11:49:30.023Z,11.50
2024-02-11T11:53:01.818Z,11.60
2024-02-11T11:56:25.101Z,11.70
2024-02-11T11:59:57.305Z,11.80
2024-02-11T12:03:19.348Z,11.80
2024-02-11T12:06:41.812Z,11.90
2024-02-11T12:10:05.629Z,11.80
2024-02-11T12:13:30.328Z,11.90
2024-02-11T12:16:52.686Z,11.90
2024-02-11T12:20:15.484Z,11.90
2024-02-11T12:23:38.340Z,12.10
2024-02-11T12:27:00.479Z,12.20
2024-02-11T12:30:26.401Z,12.20
2024-02-11T12:33:51.162Z,12.30
2024-02-11T12:37:13.852Z,12.40
2024-02-11T12:40:38.532Z,12.40
2024-02-11T12:44:00.647Z,12.40
2024-02-11T12:47:23.164Z,12.20
2024-02-11T12:50:46.059Z,12.20
2024-02-11T12:54:08.469Z,12.10
2024-02-11T12:57:30.614Z,12.00
2024-02-11T13:00:52.839Z,11.90
2024-02-11T13:04:15.085Z,11.80
2024-02-11T13:07:37.679Z,11.80
2024-02-11T13:11:04.225Z,12.00
2024-02-11T13:14:26.408Z,12.00
2024-02-11T13:17:48.629Z,11.90
2024-02-11T13:21:11.079Z,11.70
2024-02-11T13:24:33.369Z,11.80
2024-02-11T13:27:55.430Z,11.70
2024-02-11T13:31:25.099Z,11.60
2024-02-11T13:34:48.955Z,11.60
2024-02-11T13:38:11.774Z,11.40
2024-02-11T13:41:34.023Z,11.50
2024-02-11T13:44:56.270Z,11.40
2024-02-11T13:48:18.634Z,11.40
2024-02-11T13:51:40.800Z,11.60
2024-02-11T13:55:04.660Z,11.50
2024-02-11T13:58:26.805Z,11.60
2024-02-11T14:01:50.692Z,11.60
2024-02-11T14:05:12.886Z,11.60
2024-02-11T14:08:35.197Z,11.60
2024-02-11T14:11:59.725Z,11.50
2024-02-11T14:15:22.956Z,11.40
2024-02-11T14:18:45.463Z,11.30
2024-02-11T14:22:10.174Z,11.30
2024-02-11T14:25:33.040Z,11.30
2024-02-11T14:28:55.676Z,11.30
2024-02-11T14:32:18.063Z,11.20
2024-02-11T14:35:40.730Z,11.20
2024-02-11T14:39:02.824Z,11.30
2024-02-11T14:42:24.956Z,11.30
2024-02-11T14:45:47.564Z,11.30
2024-02-11T14:49:13.613Z,11.30
2024-02-11T14:52:37.101Z,11.30
2024-02-11T14:56:01.992Z,11.30
2024-02-11T14:59:27.048Z,11.30
2024-02-11T15:02:49.211Z,11.40
2024-02-11T15:06:11.533Z,11.30
2024-02-11T15:09:38.556Z,11.20
2024-02-11T15:13:03.605Z,11.20
2024-02-11T15:16:25.971Z,11.20
2024-02-11T15:19:48.268Z,11.10
2024-02-11T15:23:11.468Z,11.10
2024-02-11T15:26:34.275Z,11.10
2024-02-11T15:29:56.690Z,11.00
2024-02-11T15:33:18.966Z,10.90
2024-02-11T15:36:42.935Z,10.90
2024-02-11T15:40:09.256Z,10.80
2024-02-11T15:43:32.493Z,10.70
2024-02-11T15:46:54.904Z,10.70
2024-02-11T15:50:17.827Z,10.60
2024-02-11T15:53:40.030Z,10.60
2024-02-11T15:57:02.443Z,10.50
2024-02-11T16:00:24.952Z,10.50
2024-02-11T16:03:48.439Z,10.50
2024-02-11T16:07:10.531Z,10.50
2024-02-11T16:10:32.697Z,10.50
2024-02-11T16:13:55.114Z,10.40
2024-02-11T16:17:17.278Z,10.30
2024-02-11T16:20:41.185Z,10.20
2024-02-11T16:24:03.402Z,10.20
2024-02-11T16:27:25.604Z,10.30
2024-02-11T16:30:49.214Z,10.10
2024-02-11T16:34:14.994Z,10.00
2024-02-11T16:37:37.103Z,9.80
2024-02-11T16:40:59.362Z,9.80
2024-02-11T16:44:22.151Z,9.70
2024-02-11T16:47:44.354Z,9.60
2024-02-11T16:51:07.371Z,9.50
2024-02-11T16:54:29.599Z,9.50
2024-02-11T16:57:52.233Z,9.40
2024-02-11T17:01:14.502Z,9.30
2024-02-11T17:04:41.052Z,9.30
2024-02-11T17:08:04.212Z,9.20
2024-02-11T17:11:26.686Z,9.00
2024-02-11T17:14:49.230Z,8.90
2024-02-11T17:18:12.301Z,8.80
2024-02-11T17:21:34.946Z,8.70
2024-02-11T17:24:57.046Z,8.60
2024-02-11T17:28:19.701Z,8.60
2024-02-11T17:31:42.704Z,8.60
2024-02-11T17:35:08.861Z,8.50
2024-02-11T17:38:31.550Z,8.50
2024-02-11T17:41:55.542Z,8.60
2024-02-11T17:45:17.838Z,8.70
2024-02-11T17:48:43.561Z,8.60
2024-02-11T17:52:06.152Z,8.50
2024-02-11T17:55:29.450Z,8.50
2024-02-11T17:58:51.571Z,8.50
2024-02-11T18:02:13.804Z,8.60
2024-02-11T18:05:36.242Z,8.70
2024-02-11T18:09:00.058Z,8.70
2024-02-11T18:12:25.107Z,8.70
2024-02-11T18:15:47.167Z,8.70
2024-02-11T18:19:12.010Z,8.80
2024-02-11T18:22:42.158Z,8.80
2024-02-11T18:26:09.446Z,8.80
2024-02-11T18:29:37.277Z,8.80
2024-02-11T18:32:59.425Z,8.80
2024-02-11T18:36:21.578Z,8.80
2024-02-11T18:39:43.665Z,8.90
2024-02-11T18:43:05.703Z,9.00
2024-02-11T18:46:28.089Z,9.10
2024-02-11T18:49:50.499Z,9.10
2024-02-11T18:53:12.689Z,9.10
2024-02-11T18:56:37.823Z,9.10
2024-02-11T19:00:00.136Z,9.10
2024-02-11T19:03:22.444Z,9.10
2024-02-11T19:06:45.286Z,9.00
2024-02-11T19:10:08.464Z,9.00
2024-02-11T19:13:33.238Z,9.00
2024-02-11T19:16:55.407Z,8.90
2024-02-11T19:20:18.716Z,9.00
2024-02-11T19:23:43.340Z,9.00
2024-02-11T19:27:05.750Z,8.90
2024-02-11T19:30:27.882Z,8.90
2024-02-11T19:33:50.253Z,8.90
2024-02-11T19:37:13.225Z,8.90
2024-02-11T19:40:35.405Z,8.90
2024-02-11T19:43:58.799Z,8.90
2024-02-11T19:47:21.668Z,8.80
2024-02-11T19:50:44.705Z,8.70
2024-02-11T19:54:06.799Z,8.60
2024-02-11T19:57:28.881Z,8.70
2024-02-11T20:00:51.048Z,8.80
2024-02-11T20:04:13.967Z,8.80
2024-02-11T20:07:38.719Z,8.80
2024-02-11T20:11:01.951Z,8.90
2024-02-11T20:14:24.136Z,8.80
2024-02-11T20:17:46.387Z,8.90
2024-02-11T20:21:10.584Z,8.90
2024-02-11T20:24:32.827Z,8.90
2024-02-11T20:27:55.533Z,8.90
2024-02-11T20:31:17.616Z,8.80
2024-02-11T20:34:42.346Z,8.80
2024-02-11T20:38:04.580Z,8.80
2024-02-11T20:41:27.775Z,8.80
2024-02-11T20:44:52.386Z,8.80
2024-02-11T20:48:14.872Z,8.90
2024-02-11T20:51:37.653Z,8.80
2024-02-11T20:54:59.961Z,8.80
2024-02-11T20:58:22.237Z,8.90
2024-02-11T21:01:44.520Z,9.00
2024-02-11T21:05:07.543Z,9.00
2024-02-11T21:08:30.528Z,8.90
2024-02-11T21:11:52.762Z,8.90
2024-02-11T21:15:16.474Z,8.90
2024-02-11T21:18:47.396Z,8.80
2024-02-11T21:22:10.510Z,8.70
2024-02-11T21:25:33.083Z,8.60
2024-02-11T21:28:56.201Z,8.40
2024-02-11T21:32:18.277Z,8.40
2024-02-11T21:35:40.594Z,8.30
2024-02-11T21:39:02.844Z,8.20
2024-02-11T21:42:25.650Z,8.10
2024-02-11T21:45:47.732Z,8.00
2024-02-11T21:49:11.054Z,8.00
2024-02-11T21:52:33.495Z,8.00
2024-02-11T21:55:56.886Z,8.00
2024-02-11T21:59:19.173Z,8.00
2024-02-11T22:02:47.370Z,8.00
2024-02-11T22:06:09.554Z,7.90
2024-02-11T22:09:31.646Z,7.90
2024-02-11T22:12:54.457Z,7.90
2024-02-11T22:16:16.843Z,7.90
2024-02-11T22:19:39.172Z,7.90
2024-02-11T22:23:01.322Z,7.80
2024-02-11T22:26:24.565Z,7.80
2024-02-11T22:29:47.820Z,7.80
2024-02-11T22:33:12.475Z,7.80
2024-02-11T22:36:34.707Z,7.70
2024-02-11T22:39:56.887Z,7.80
2024-02-11T22:43:21.272Z,7.70
2024-02-11T22:46:43.415Z,7.80
2024-02-11T22:50:06.376Z,7.80
2024-02-11T22:53:28.523Z,7.80
2024-02-11T22:56:50.593Z,7.80
2024-02-11T23:00:33.258Z,7.80
2024-02-11T23:03:55.714Z,7.80
2024-02-11T23:07:17.800Z,7.70
2024-02-11T23:10:40.687Z,7.70
2024-02-11T23:14:03.583Z,7.70
2024-02-11T23:17:26.698Z,7.60
2024-02-11T23:20:48.775Z,7.50
2024-02-11T23:24:10.804Z,7.50
2024-02-11T23:27:32.869Z,7.60
2024-02-11T23:30:55.862Z,7.80
2024-02-11T23:34:18.882Z,7.90
2024-02-11T23:37:42.444Z,7.90
2024-02-11T23:41:05.012Z,7.90
2024-02-11T23:44:29.050Z,8.00
2024-02-11T23:47:51.445Z,7.90
2024-02-11T23:51:13.735Z,7.90
2024-02-11T23:54:37.850Z,8.00
2024-02-11T23:57:59.955Z,7.90
